sensor_id;sensor_type;location;lat;lon;timestamp;P1;durP1;ratioP1;P2;durP2;ratioP2
7166;SDS011;3625;51.762;14.320;2023-02-08T00:01:38;27.17;;;18.83;;
7166;SDS011;3625;51.762;14.320;2023-02-08T00:04:12;27.20;;;18.60;;
7166;SDS011;3625;51.762;14.320;2023-02-08T00:06:44;25.33;;;16.97;;
7166;SDS011;3625;51.762;14.320;2023-02-08T00:09:17;36.07;;;19.80;;
7166;SDS011;3625;51.762;14.320;2023-02-08T00:12:00;26.90;;;17.63;;
7166;SDS011;3625;51.762;14.320;2023-02-08T00:14:33;34.57;;;21.70;;
7166;SDS011;3625;51.762;14.320;2023-02-08T00:17:04;34.47;;;22.30;;
7166;SDS011;3625;51.762;14.320;2023-02-08T00:19:39;22.53;;;16.60;;
7166;SDS011;3625;51.762;14.320;2023-02-08T00:22:09;30.00;;;19.73;;
7166;SDS011;3625;51.762;14.320;2023-02-08T00:24:38;31.20;;;19.67;;
7166;SDS011;3625;51.762;14.320;2023-02-08T00:27:14;35.17;;;20.77;;
7166;SDS011;3625;51.762;14.320;2023-02-08T00:29:51;35.10;;;22.20;;
7166;SDS011;3625;51.762;14.320;2023-02-08T00:32:23;30.17;;;19.67;;
7166;SDS011;3625;51.762;14.320;2023-02-08T00:34:54;34.80;;;20.73;;
7166;SDS011;3625;51.762;14.320;2023-02-08T00:37:23;31.60;;;21.73;;
7166;SDS011;3625;51.762;14.320;2023-02-08T00:40:06;27.30;;;18.30;;
7166;SDS011;3625;51.762;14.320;2023-02-08T00:42:45;34.03;;;21.70;;
7166;SDS011;3625;51.762;14.320;2023-02-08T00:45:19;35.50;;;22.30;;
7166;SDS011;3625;51.762;14.320;2023-02-08T00:47:58;34.97;;;22.10;;
7166;SDS011;3625;51.762;14.320;2023-02-08T00:50:27;29.60;;;18.60;;
7166;SDS011;3625;51.762;14.320;2023-02-08T00:52:59;30.57;;;20.73;;
7166;SDS011;3625;51.762;14.320;2023-02-08T00:55:29;32.10;;;20.40;;
7166;SDS011;3625;51.762;14.320;2023-02-08T00:58:00;32.47;;;20.93;;
7166;SDS011;3625;51.762;14.320;2023-02-08T01:00:40;32.03;;;22.03;;
7166;SDS011;3625;51.762;14.320;2023-02-08T01:03:18;30.33;;;22.20;;
7166;SDS011;3625;51.762;14.320;2023-02-08T01:05:58;32.87;;;21.43;;
7166;SDS011;3625;51.762;14.320;2023-02-08T01:08:33;32.57;;;22.07;;
7166;SDS011;3625;51.762;14.320;2023-02-08T01:11:06;35.53;;;22.23;;
7166;SDS011;3625;51.762;14.320;2023-02-08T01:13:47;33.23;;;21.93;;
7166;SDS011;3625;51.762;14.320;2023-02-08T01:16:23;38.33;;;21.80;;
7166;SDS011;3625;51.762;14.320;2023-02-08T01:19:00;27.63;;;19.60;;
7166;SDS011;3625;51.762;14.320;2023-02-08T01:21:35;35.90;;;21.70;;
7166;SDS011;3625;51.762;14.320;2023-02-08T01:24:14;36.97;;;20.03;;
7166;SDS011;3625;51.762;14.320;2023-02-08T01:26:55;36.27;;;21.13;;
7166;SDS011;3625;51.762;14.320;2023-02-08T01:29:30;35.57;;;22.97;;
7166;SDS011;3625;51.762;14.320;2023-02-08T01:32:02;27.53;;;17.93;;
7166;SDS011;3625;51.762;14.320;2023-02-08T01:34:32;33.43;;;20.87;;
7166;SDS011;3625;51.762;14.320;2023-02-08T01:37:06;28.10;;;20.53;;
7166;SDS011;3625;51.762;14.320;2023-02-08T01:39:36;26.70;;;18.20;;
7166;SDS011;3625;51.762;14.320;2023-02-08T01:42:12;28.67;;;18.87;;
7166;SDS011;3625;51.762;14.320;2023-02-08T01:45:15;28.07;;;18.93;;
7166;SDS011;3625;51.762;14.320;2023-02-08T01:47:58;29.60;;;20.00;;
7166;SDS011;3625;51.762;14.320;2023-02-08T01:50:40;33.17;;;21.23;;
7166;SDS011;3625;51.762;14.320;2023-02-08T01:53:20;27.83;;;18.83;;
7166;SDS011;3625;51.762;14.320;2023-02-08T01:56:03;33.07;;;20.80;;
7166;SDS011;3625;51.762;14.320;2023-02-08T01:58:41;32.47;;;20.67;;
7166;SDS011;3625;51.762;14.320;2023-02-08T02:01:20;34.17;;;22.17;;
7166;SDS011;3625;51.762;14.320;2023-02-08T02:03:53;24.23;;;17.07;;
7166;SDS011;3625;51.762;14.320;2023-02-08T02:06:32;25.73;;;17.87;;
7166;SDS011;3625;51.762;14.320;2023-02-08T02:09:08;25.10;;;16.00;;
7166;SDS011;3625;51.762;14.320;2023-02-08T02:11:46;31.73;;;19.83;;
7166;SDS011;3625;51.762;14.320;2023-02-08T02:14:22;29.27;;;19.37;;
7166;SDS011;3625;51.762;14.320;2023-02-08T02:19:44;27.50;;;18.27;;
7166;SDS011;3625;51.762;14.320;2023-02-08T02:22:35;31.13;;;19.90;;
7166;SDS011;3625;51.762;14.320;2023-02-08T02:25:57;27.43;;;18.60;;
7166;SDS011;3625;51.762;14.320;2023-02-08T02:29:04;34.07;;;18.07;;
7166;SDS011;3625;51.762;14.320;2023-02-08T02:31:59;29.17;;;18.77;;
7166;SDS011;3625;51.762;14.320;2023-02-08T02:34:45;26.70;;;18.30;;
7166;SDS011;3625;51.762;14.320;2023-02-08T02:37:31;29.10;;;19.10;;
7166;SDS011;3625;51.762;14.320;2023-02-08T02:40:18;35.27;;;21.13;;
7166;SDS011;3625;51.762;14.320;2023-02-08T02:42:58;39.23;;;22.37;;
7166;SDS011;3625;51.762;14.320;2023-02-08T02:45:58;35.30;;;22.03;;
7166;SDS011;3625;51.762;14.320;2023-02-08T02:48:53;29.40;;;19.77;;
7166;SDS011;3625;51.762;14.320;2023-02-08T02:51:31;38.77;;;23.40;;
7166;SDS011;3625;51.762;14.320;2023-02-08T02:54:26;34.70;;;22.73;;
7166;SDS011;3625;51.762;14.320;2023-02-08T02:57:16;36.17;;;22.43;;
7166;SDS011;3625;51.762;14.320;2023-02-08T03:00:11;42.33;;;23.97;;
7166;SDS011;3625;51.762;14.320;2023-02-08T03:02:58;39.47;;;24.30;;
7166;SDS011;3625;51.762;14.320;2023-02-08T03:06:21;37.97;;;24.27;;
7166;SDS011;3625;51.762;14.320;2023-02-08T03:09:09;38.57;;;22.53;;
7166;SDS011;3625;51.762;14.320;2023-02-08T03:12:05;35.47;;;22.43;;
7166;SDS011;3625;51.762;14.320;2023-02-08T03:15:02;39.17;;;23.50;;
7166;SDS011;3625;51.762;14.320;2023-02-08T03:18:17;40.40;;;24.73;;
7166;SDS011;3625;51.762;14.320;2023-02-08T03:21:00;40.70;;;25.33;;
7166;SDS011;3625;51.762;14.320;2023-02-08T03:23:39;37.37;;;24.60;;
7166;SDS011;3625;51.762;14.320;2023-02-08T03:26:15;40.27;;;23.00;;
7166;SDS011;3625;51.762;14.320;2023-02-08T03:29:07;38.90;;;24.63;;
7166;SDS011;3625;51.762;14.320;2023-02-08T03:31:55;35.03;;;21.93;;
7166;SDS011;3625;51.762;14.320;2023-02-08T03:34:53;41.83;;;24.50;;
7166;SDS011;3625;51.762;14.320;2023-02-08T03:37:33;37.13;;;23.23;;
7166;SDS011;3625;51.762;14.320;2023-02-08T03:40:13;39.80;;;24.10;;
7166;SDS011;3625;51.762;14.320;2023-02-08T03:42:47;36.53;;;22.53;;
7166;SDS011;3625;51.762;14.320;2023-02-08T03:45:20;42.70;;;24.10;;
7166;SDS011;3625;51.762;14.320;2023-02-08T03:47:53;36.70;;;21.07;;
7166;SDS011;3625;51.762;14.320;2023-02-08T03:50:29;39.40;;;23.13;;
7166;SDS011;3625;51.762;14.320;2023-02-08T03:53:49;34.23;;;20.60;;
7166;SDS011;3625;51.762;14.320;2023-02-08T05:02:36;32.80;;;22.47;;
7166;SDS011;3625;51.762;14.320;2023-02-08T05:05:08;37.83;;;23.30;;
7166;SDS011;3625;51.762;14.320;2023-02-08T05:07:37;38.00;;;22.73;;
7166;SDS011;3625;51.762;14.320;2023-02-08T05:10:07;37.93;;;23.57;;
7166;SDS011;3625;51.762;14.320;2023-02-08T05:12:47;36.77;;;22.63;;
7166;SDS011;3625;51.762;14.320;2023-02-08T05:15:18;33.17;;;21.37;;
7166;SDS011;3625;51.762;14.320;2023-02-08T05:17:48;38.30;;;21.80;;
7166;SDS011;3625;51.762;14.320;2023-02-08T05:20:23;33.90;;;19.80;;
7166;SDS011;3625;51.762;14.320;2023-02-08T05:22:52;33.40;;;19.97;;
7166;SDS011;3625;51.762;14.320;2023-02-08T05:25:29;33.97;;;20.17;;
7166;SDS011;3625;51.762;14.320;2023-02-08T05:28:09;30.07;;;19.70;;
7166;SDS011;3625;51.762;14.320;2023-02-08T05:30:46;34.97;;;21.57;;
7166;SDS011;3625;51.762;14.320;2023-02-08T05:33:24;32.83;;;21.47;;
7166;SDS011;3625;51.762;14.320;2023-02-08T05:35:53;30.73;;;18.80;;
7166;SDS011;3625;51.762;14.320;2023-02-08T05:38:24;35.77;;;21.17;;
7166;SDS011;3625;51.762;14.320;2023-02-08T05:41:03;29.33;;;18.93;;
7166;SDS011;3625;51.762;14.320;2023-02-08T05:43:32;34.27;;;22.50;;
7166;SDS011;3625;51.762;14.320;2023-02-08T05:46:02;36.00;;;22.43;;
7166;SDS011;3625;51.762;14.320;2023-02-08T05:48:35;30.13;;;20.53;;
7166;SDS011;3625;51.762;14.320;2023-02-08T05:51:10;28.07;;;20.33;;
7166;SDS011;3625;51.762;14.320;2023-02-08T05:53:39;33.13;;;21.37;;
7166;SDS011;3625;51.762;14.320;2023-02-08T05:56:09;33.30;;;20.83;;
7166;SDS011;3625;51.762;14.320;2023-02-08T05:58:42;36.03;;;23.13;;
7166;SDS011;3625;51.762;14.320;2023-02-08T06:01:12;35.57;;;20.67;;
7166;SDS011;3625;51.762;14.320;2023-02-08T06:03:44;37.00;;;21.03;;
7166;SDS011;3625;51.762;14.320;2023-02-08T06:06:18;37.17;;;22.63;;
7166;SDS011;3625;51.762;14.320;2023-02-08T06:08:56;34.17;;;21.77;;
7166;SDS011;3625;51.762;14.320;2023-02-08T06:11:25;33.23;;;22.17;;
7166;SDS011;3625;51.762;14.320;2023-02-08T06:13:54;31.87;;;19.77;;
7166;SDS011;3625;51.762;14.320;2023-02-08T06:16:23;29.13;;;19.43;;
7166;SDS011;3625;51.762;14.320;2023-02-08T06:18:54;35.67;;;21.40;;
7166;SDS011;3625;51.762;14.320;2023-02-08T06:21:31;31.23;;;19.90;;
7166;SDS011;3625;51.762;14.320;2023-02-08T06:24:00;30.63;;;21.70;;
7166;SDS011;3625;51.762;14.320;2023-02-08T06:26:33;32.63;;;20.20;;
7166;SDS011;3625;51.762;14.320;2023-02-08T06:29:02;30.47;;;19.27;;
7166;SDS011;3625;51.762;14.320;2023-02-08T06:31:31;39.37;;;21.97;;
7166;SDS011;3625;51.762;14.320;2023-02-08T06:34:10;34.93;;;21.17;;
7166;SDS011;3625;51.762;14.320;2023-02-08T06:36:43;35.33;;;23.37;;
7166;SDS011;3625;51.762;14.320;2023-02-08T06:39:16;35.33;;;21.57;;
7166;SDS011;3625;51.762;14.320;2023-02-08T06:41:46;33.03;;;20.07;;
7166;SDS011;3625;51.762;14.320;2023-02-08T06:44:16;35.10;;;23.03;;
7166;SDS011;3625;51.762;14.320;2023-02-08T06:46:53;35.93;;;20.97;;
7166;SDS011;3625;51.762;14.320;2023-02-08T06:49:26;33.77;;;21.10;;
7166;SDS011;3625;51.762;14.320;2023-02-08T06:51:57;37.27;;;21.83;;
7166;SDS011;3625;51.762;14.320;2023-02-08T06:54:26;41.58;;;27.00;;
7166;SDS011;3625;51.762;14.320;2023-02-08T06:57:01;37.50;;;22.67;;
7166;SDS011;3625;51.762;14.320;2023-02-08T06:59:33;32.67;;;20.20;;
7166;SDS011;3625;51.762;14.320;2023-02-08T07:02:02;29.30;;;19.40;;
7166;SDS011;3625;51.762;14.320;2023-02-08T07:04:35;32.83;;;19.53;;
7166;SDS011;3625;51.762;14.320;2023-02-08T07:07:15;37.67;;;23.30;;
7166;SDS011;3625;51.762;14.320;2023-02-08T07:09:46;32.73;;;20.20;;
7166;SDS011;3625;51.762;14.320;2023-02-08T07:12:16;38.23;;;25.37;;
7166;SDS011;3625;51.762;14.320;2023-02-08T07:14:45;29.53;;;19.37;;
7166;SDS011;3625;51.762;14.320;2023-02-08T07:17:16;35.13;;;22.90;;
7166;SDS011;3625;51.762;14.320;2023-02-08T07:19:53;39.27;;;23.20;;
7166;SDS011;3625;51.762;14.320;2023-02-08T07:22:28;38.80;;;24.57;;
7166;SDS011;3625;51.762;14.320;2023-02-08T07:25:01;32.60;;;21.47;;
7166;SDS011;3625;51.762;14.320;2023-02-08T07:27:32;38.50;;;22.87;;
7166;SDS011;3625;51.762;14.320;2023-02-08T07:30:28;42.27;;;22.27;;
7166;SDS011;3625;51.762;14.320;2023-02-08T07:33:02;34.00;;;21.90;;
7166;SDS011;3625;51.762;14.320;2023-02-08T07:35:34;36.83;;;23.23;;
7166;SDS011;3625;51.762;14.320;2023-02-08T07:38:03;38.93;;;22.63;;
7166;SDS011;3625;51.762;14.320;2023-02-08T07:40:32;39.17;;;24.83;;
7166;SDS011;3625;51.762;14.320;2023-02-08T07:43:01;35.57;;;23.63;;
7166;SDS011;3625;51.762;14.320;2023-02-08T07:45:44;35.13;;;21.00;;
7166;SDS011;3625;51.762;14.320;2023-02-08T07:48:16;35.13;;;19.83;;
7166;SDS011;3625;51.762;14.320;2023-02-08T07:50:55;35.47;;;22.47;;
7166;SDS011;3625;51.762;14.320;2023-02-08T07:53:59;39.70;;;22.87;;
7166;SDS011;3625;51.762;14.320;2023-02-08T07:56:39;39.33;;;22.37;;
7166;SDS011;3625;51.762;14.320;2023-02-08T07:59:13;38.20;;;20.03;;
7166;SDS011;3625;51.762;14.320;2023-02-08T08:01:43;40.30;;;24.80;;
7166;SDS011;3625;51.762;14.320;2023-02-08T08:04:14;36.53;;;22.87;;
7166;SDS011;3625;51.762;14.320;2023-02-08T08:06:59;35.63;;;22.03;;
7166;SDS011;3625;51.762;14.320;2023-02-08T08:09:34;36.13;;;21.90;;
7166;SDS011;3625;51.762;14.320;2023-02-08T08:12:11;32.17;;;21.20;;
7166;SDS011;3625;51.762;14.320;2023-02-08T08:14:43;34.57;;;22.17;;
7166;SDS011;3625;51.762;14.320;2023-02-08T08:17:12;35.67;;;23.27;;
7166;SDS011;3625;51.762;14.320;2023-02-08T08:19:45;35.07;;;21.00;;
7166;SDS011;3625;51.762;14.320;2023-02-08T08:22:22;36.43;;;22.63;;
7166;SDS011;3625;51.762;14.320;2023-02-08T08:24:57;37.27;;;21.33;;
7166;SDS011;3625;51.762;14.320;2023-02-08T08:27:26;39.90;;;24.10;;
7166;SDS011;3625;51.762;14.320;2023-02-08T08:30:11;33.40;;;21.37;;
7166;SDS011;3625;51.762;14.320;2023-02-08T08:32:44;37.73;;;23.93;;
7166;SDS011;3625;51.762;14.320;2023-02-08T08:35:15;33.63;;;22.30;;
7166;SDS011;3625;51.762;14.320;2023-02-08T08:37:52;33.67;;;23.10;;
7166;SDS011;3625;51.762;14.320;2023-02-08T08:40:25;35.70;;;21.17;;
7166;SDS011;3625;51.762;14.320;2023-02-08T08:43:13;35.97;;;21.80;;
7166;SDS011;3625;51.762;14.320;2023-02-08T08:45:44;36.97;;;23.43;;
7166;SDS011;3625;51.762;14.320;2023-02-08T08:48:20;29.07;;;20.23;;
7166;SDS011;3625;51.762;14.320;2023-02-08T08:50:52;31.63;;;19.83;;
7166;SDS011;3625;51.762;14.320;2023-02-08T08:53:25;33.67;;;22.10;;
7166;SDS011;3625;51.762;14.320;2023-02-08T08:56:08;32.63;;;21.17;;
7166;SDS011;3625;51.762;14.320;2023-02-08T08:58:41;36.90;;;22.13;;
7166;SDS011;3625;51.762;14.320;2023-02-08T09:01:12;35.50;;;20.40;;
7166;SDS011;3625;51.762;14.320;2023-02-08T09:03:46;35.87;;;21.40;;
7166;SDS011;3625;51.762;14.320;2023-02-08T09:06:15;29.43;;;19.20;;
7166;SDS011;3625;51.762;14.320;2023-02-08T09:08:50;33.67;;;20.40;;
7166;SDS011;3625;51.762;14.320;2023-02-08T09:11:33;31.80;;;21.03;;
7166;SDS011;3625;51.762;14.320;2023-02-08T09:14:04;32.80;;;21.13;;
7166;SDS011;3625;51.762;14.320;2023-02-08T09:16:42;34.40;;;20.57;;
7166;SDS011;3625;51.762;14.320;2023-02-08T09:19:15;29.93;;;20.57;;
7166;SDS011;3625;51.762;14.320;2023-02-08T09:21:44;33.60;;;20.17;;
7166;SDS011;3625;51.762;14.320;2023-02-08T09:24:15;33.97;;;19.90;;
7166;SDS011;3625;51.762;14.320;2023-02-08T09:26:45;32.30;;;20.00;;
7166;SDS011;3625;51.762;14.320;2023-02-08T09:29:14;31.27;;;19.20;;
7166;SDS011;3625;51.762;14.320;2023-02-08T09:31:45;30.40;;;18.90;;
7166;SDS011;3625;51.762;14.320;2023-02-08T09:34:16;30.50;;;19.50;;
7166;SDS011;3625;51.762;14.320;2023-02-08T09:36:46;28.83;;;19.47;;
7166;SDS011;3625;51.762;14.320;2023-02-08T09:39:17;32.43;;;20.83;;
7166;SDS011;3625;51.762;14.320;2023-02-08T09:44:59;33.70;;;21.73;;
7166;SDS011;3625;51.762;14.320;2023-02-08T09:47:49;32.73;;;21.03;;
7166;SDS011;3625;51.762;14.320;2023-02-08T09:50:28;27.87;;;19.20;;
7166;SDS011;3625;51.762;14.320;2023-02-08T09:53:03;31.23;;;19.40;;
7166;SDS011;3625;51.762;14.320;2023-02-08T09:55:47;31.10;;;20.00;;
7166;SDS011;3625;51.762;14.320;2023-02-08T09:58:20;30.37;;;19.40;;
7166;SDS011;3625;51.762;14.320;2023-02-08T10:00:54;30.30;;;19.60;;
7166;SDS011;3625;51.762;14.320;2023-02-08T10:03:26;26.87;;;17.90;;
7166;SDS011;3625;51.762;14.320;2023-02-08T10:06:03;30.47;;;17.40;;
7166;SDS011;3625;51.762;14.320;2023-02-08T10:08:42;27.50;;;19.17;;
7166;SDS011;3625;51.762;14.320;2023-02-08T10:14:18;29.30;;;20.80;;
7166;SDS011;3625;51.762;14.320;2023-02-08T10:17:17;30.47;;;18.93;;
7166;SDS011;3625;51.762;14.320;2023-02-08T10:20:02;28.30;;;18.27;;
7166;SDS011;3625;51.762;14.320;2023-02-08T10:22:40;28.93;;;19.17;;
7166;SDS011;3625;51.762;14.320;2023-02-08T10:25:23;27.53;;;17.00;;
7166;SDS011;3625;51.762;14.320;2023-02-08T10:28:20;30.47;;;17.87;;
7166;SDS011;3625;51.762;14.320;2023-02-08T10:31:07;29.17;;;18.20;;
7166;SDS011;3625;51.762;14.320;2023-02-08T10:33:47;27.13;;;17.40;;
7166;SDS011;3625;51.762;14.320;2023-02-08T10:36:24;29.57;;;17.53;;
7166;SDS011;3625;51.762;14.320;2023-02-08T10:38:58;26.80;;;18.00;;
7166;SDS011;3625;51.762;14.320;2023-02-08T10:41:31;27.57;;;18.13;;
7166;SDS011;3625;51.762;14.320;2023-02-08T10:44:07;27.47;;;17.10;;
7166;SDS011;3625;51.762;14.320;2023-02-08T10:46:58;27.30;;;17.87;;
7166;SDS011;3625;51.762;14.320;2023-02-08T10:49:39;28.03;;;18.57;;
7166;SDS011;3625;51.762;14.320;2023-02-08T10:52:18;28.80;;;18.27;;
7166;SDS011;3625;51.762;14.320;2023-02-08T10:54:47;27.70;;;17.67;;
7166;SDS011;3625;51.762;14.320;2023-02-08T10:57:17;26.20;;;17.80;;
7166;SDS011;3625;51.762;14.320;2023-02-08T10:59:55;26.87;;;18.13;;
7166;SDS011;3625;51.762;14.320;2023-02-08T11:02:28;26.33;;;17.60;;
7166;SDS011;3625;51.762;14.320;2023-02-08T11:05:00;22.53;;;15.90;;
7166;SDS011;3625;51.762;14.320;2023-02-08T11:07:33;28.27;;;16.73;;
7166;SDS011;3625;51.762;14.320;2023-02-08T11:10:20;28.90;;;19.33;;
7166;SDS011;3625;51.762;14.320;2023-02-08T11:12:54;33.87;;;19.43;;
7166;SDS011;3625;51.762;14.320;2023-02-08T11:15:26;28.73;;;20.00;;
7166;SDS011;3625;51.762;14.320;2023-02-08T11:18:01;27.23;;;17.93;;
7166;SDS011;3625;51.762;14.320;2023-02-08T11:20:35;27.20;;;17.40;;
7166;SDS011;3625;51.762;14.320;2023-02-08T11:23:16;26.00;;;17.27;;
7166;SDS011;3625;51.762;14.320;2023-02-08T11:25:49;26.50;;;17.63;;
7166;SDS011;3625;51.762;14.320;2023-02-08T11:28:27;23.70;;;16.63;;
7166;SDS011;3625;51.762;14.320;2023-02-08T11:31:00;23.20;;;15.70;;
7166;SDS011;3625;51.762;14.320;2023-02-08T11:33:39;23.30;;;16.53;;
7166;SDS011;3625;51.762;14.320;2023-02-08T11:36:28;25.97;;;15.83;;
7166;SDS011;3625;51.762;14.320;2023-02-08T11:39:00;23.33;;;15.07;;
7166;SDS011;3625;51.762;14.320;2023-02-08T11:41:31;24.77;;;15.50;;
7166;SDS011;3625;51.762;14.320;2023-02-08T11:44:03;22.77;;;15.87;;
7166;SDS011;3625;51.762;14.320;2023-02-08T11:46:35;21.70;;;14.70;;
7166;SDS011;3625;51.762;14.320;2023-02-08T11:49:19;22.20;;;15.43;;
7166;SDS011;3625;51.762;14.320;2023-02-08T11:51:50;23.33;;;16.20;;
7166;SDS011;3625;51.762;14.320;2023-02-08T11:54:32;22.77;;;16.00;;
7166;SDS011;3625;51.762;14.320;2023-02-08T11:57:10;22.30;;;14.13;;
7166;SDS011;3625;51.762;14.320;2023-02-08T11:59:40;23.07;;;15.77;;
7166;SDS011;3625;51.762;14.320;2023-02-08T12:02:34;22.00;;;15.13;;
7166;SDS011;3625;51.762;14.320;2023-02-08T12:05:08;18.90;;;13.53;;
7166;SDS011;3625;51.762;14.320;2023-02-08T12:07:48;21.73;;;14.53;;
7166;SDS011;3625;51.762;14.320;2023-02-08T12:13:37;19.90;;;12.57;;
7166;SDS011;3625;51.762;14.320;2023-02-08T12:16:33;20.50;;;13.77;;
7166;SDS011;3625;51.762;14.320;2023-02-08T12:19:32;21.33;;;13.07;;
7166;SDS011;3625;51.762;14.320;2023-02-08T12:22:20;15.90;;;12.07;;
7166;SDS011;3625;51.762;14.320;2023-02-08T12:24:54;18.73;;;12.00;;
7166;SDS011;3625;51.762;14.320;2023-02-08T12:27:39;15.13;;;11.77;;
7166;SDS011;3625;51.762;14.320;2023-02-08T12:30:18;18.73;;;12.87;;
7166;SDS011;3625;51.762;14.320;2023-02-08T12:32:56;16.30;;;11.47;;
7166;SDS011;3625;51.762;14.320;2023-02-08T12:38:49;14.77;;;10.67;;
7166;SDS011;3625;51.762;14.320;2023-02-08T12:45:43;15.47;;;10.63;;
7166;SDS011;3625;51.762;14.320;2023-02-08T12:56:15;14.53;;;10.30;;
7166;SDS011;3625;51.762;14.320;2023-02-08T12:58:54;15.73;;;10.23;;
7166;SDS011;3625;51.762;14.320;2023-02-08T13:01:45;14.63;;;10.30;;
7166;SDS011;3625;51.762;14.320;2023-02-08T15:44:44;7.73;;;6.93;;
7166;SDS011;3625;51.762;14.320;2023-02-08T15:47:17;8.30;;;7.23;;
7166;SDS011;3625;51.762;14.320;2023-02-08T15:50:07;9.07;;;7.43;;
7166;SDS011;3625;51.762;14.320;2023-02-08T15:53:11;8.27;;;7.27;;
7166;SDS011;3625;51.762;14.320;2023-02-08T15:56:18;10.27;;;8.00;;
7166;SDS011;3625;51.762;14.320;2023-02-08T15:59:11;12.23;;;8.17;;
7166;SDS011;3625;51.762;14.320;2023-02-08T16:02:19;10.20;;;7.60;;
7166;SDS011;3625;51.762;14.320;2023-02-08T16:05:45;13.63;;;8.67;;
7166;SDS011;3625;51.762;14.320;2023-02-08T16:14:03;9.47;;;7.50;;
7166;SDS011;3625;51.762;14.320;2023-02-08T17:09:28;14.47;;;11.03;;
7166;SDS011;3625;51.762;14.320;2023-02-08T17:12:09;17.33;;;12.77;;
7166;SDS011;3625;51.762;14.320;2023-02-08T17:14:50;13.83;;;11.20;;
7166;SDS011;3625;51.762;14.320;2023-02-08T17:17:29;12.97;;;10.20;;
7166;SDS011;3625;51.762;14.320;2023-02-08T17:20:38;15.83;;;12.00;;
7166;SDS011;3625;51.762;14.320;2023-02-08T17:23:08;12.83;;;10.57;;
7166;SDS011;3625;51.762;14.320;2023-02-08T17:25:46;12.13;;;10.03;;
7166;SDS011;3625;51.762;14.320;2023-02-08T17:28:19;13.73;;;10.20;;
7166;SDS011;3625;51.762;14.320;2023-02-08T17:30:49;12.33;;;9.50;;
7166;SDS011;3625;51.762;14.320;2023-02-08T17:33:21;12.27;;;10.07;;
7166;SDS011;3625;51.762;14.320;2023-02-08T17:36:01;12.60;;;9.90;;
7166;SDS011;3625;51.762;14.320;2023-02-08T17:38:36;12.07;;;9.87;;
7166;SDS011;3625;51.762;14.320;2023-02-08T17:41:19;12.97;;;10.80;;
7166;SDS011;3625;51.762;14.320;2023-02-08T17:43:58;13.27;;;10.13;;
7166;SDS011;3625;51.762;14.320;2023-02-08T17:47:10;14.13;;;9.57;;
7166;SDS011;3625;51.762;14.320;2023-02-08T17:49:56;12.83;;;10.07;;
7166;SDS011;3625;51.762;14.320;2023-02-08T17:53:21;13.23;;;10.10;;
7166;SDS011;3625;51.762;14.320;2023-02-08T17:56:18;12.73;;;10.70;;
7166;SDS011;3625;51.762;14.320;2023-02-08T17:59:13;17.10;;;11.03;;
7166;SDS011;3625;51.762;14.320;2023-02-08T18:01:51;13.23;;;10.23;;
7166;SDS011;3625;51.762;14.320;2023-02-08T18:04:21;15.87;;;10.93;;
7166;SDS011;3625;51.762;14.320;2023-02-08T18:06:58;16.63;;;10.67;;
7166;SDS011;3625;51.762;14.320;2023-02-08T18:09:40;13.20;;;11.13;;
7166;SDS011;3625;51.762;14.320;2023-02-08T18:12:21;14.33;;;10.10;;
7166;SDS011;3625;51.762;14.320;2023-02-08T18:14:55;12.80;;;9.77;;
7166;SDS011;3625;51.762;14.320;2023-02-08T18:17:37;16.07;;;10.97;;
7166;SDS011;3625;51.762;14.320;2023-02-08T18:20:19;14.73;;;9.77;;
7166;SDS011;3625;51.762;14.320;2023-02-08T18:22:56;14.30;;;10.47;;
7166;SDS011;3625;51.762;14.320;2023-02-08T18:25:25;13.83;;;11.00;;
7166;SDS011;3625;51.762;14.320;2023-02-08T18:28:13;12.77;;;10.43;;
7166;SDS011;3625;51.762;14.320;2023-02-08T18:30:46;11.43;;;9.97;;
7166;SDS011;3625;51.762;14.320;2023-02-08T18:33:19;13.63;;;9.97;;
7166;SDS011;3625;51.762;14.320;2023-02-08T18:35:48;13.63;;;10.67;;
7166;SDS011;3625;51.762;14.320;2023-02-08T18:38:20;15.10;;;10.53;;
7166;SDS011;3625;51.762;14.320;2023-02-08T18:40:49;13.57;;;10.60;;
7166;SDS011;3625;51.762;14.320;2023-02-08T18:43:23;11.37;;;9.17;;
7166;SDS011;3625;51.762;14.320;2023-02-08T18:46:00;12.53;;;9.43;;
7166;SDS011;3625;51.762;14.320;2023-02-08T18:48:30;12.40;;;9.60;;
7166;SDS011;3625;51.762;14.320;2023-02-08T18:51:04;10.93;;;8.80;;
7166;SDS011;3625;51.762;14.320;2023-02-08T18:53:35;11.97;;;9.70;;
7166;SDS011;3625;51.762;14.320;2023-02-08T18:56:06;14.17;;;9.90;;
7166;SDS011;3625;51.762;14.320;2023-02-08T18:58:39;15.20;;;10.80;;
7166;SDS011;3625;51.762;14.320;2023-02-08T19:01:25;12.63;;;9.23;;
7166;SDS011;3625;51.762;14.320;2023-02-08T19:38:34;14.53;;;11.00;;
7166;SDS011;3625;51.762;14.320;2023-02-08T19:41:05;15.57;;;11.67;;
7166;SDS011;3625;51.762;14.320;2023-02-08T19:43:42;14.43;;;11.37;;
7166;SDS011;3625;51.762;14.320;2023-02-08T19:46:14;13.87;;;10.03;;
7166;SDS011;3625;51.762;14.320;2023-02-08T19:48:47;14.07;;;11.27;;
7166;SDS011;3625;51.762;14.320;2023-02-08T19:51:20;14.93;;;10.80;;
7166;SDS011;3625;51.762;14.320;2023-02-08T19:53:55;13.20;;;9.80;;
7166;SDS011;3625;51.762;14.320;2023-02-08T19:56:29;11.53;;;10.03;;
7166;SDS011;3625;51.762;14.320;2023-02-08T19:58:59;12.50;;;9.80;;
7166;SDS011;3625;51.762;14.320;2023-02-08T20:01:38;12.63;;;9.67;;
7166;SDS011;3625;51.762;14.320;2023-02-08T20:04:09;13.53;;;9.83;;
7166;SDS011;3625;51.762;14.320;2023-02-08T20:06:39;14.37;;;11.33;;
7166;SDS011;3625;51.762;14.320;2023-02-08T20:09:12;11.27;;;9.60;;
7166;SDS011;3625;51.762;14.320;2023-02-08T20:11:43;16.77;;;11.60;;
7166;SDS011;3625;51.762;14.320;2023-02-08T20:14:28;15.27;;;10.90;;
7166;SDS011;3625;51.762;14.320;2023-02-08T20:16:59;13.03;;;10.80;;
7166;SDS011;3625;51.762;14.320;2023-02-08T20:19:29;13.00;;;10.23;;
7166;SDS011;3625;51.762;14.320;2023-02-08T20:22:16;19.17;;;12.30;;
7166;SDS011;3625;51.762;14.320;2023-02-08T20:24:47;14.00;;;10.83;;
7166;SDS011;3625;51.762;14.320;2023-02-08T20:27:19;15.70;;;11.27;;
7166;SDS011;3625;51.762;14.320;2023-02-08T20:29:48;13.50;;;10.20;;
7166;SDS011;3625;51.762;14.320;2023-02-08T20:32:18;14.80;;;10.50;;
7166;SDS011;3625;51.762;14.320;2023-02-08T20:34:49;12.73;;;10.10;;
7166;SDS011;3625;51.762;14.320;2023-02-08T20:37:25;13.80;;;10.23;;
7166;SDS011;3625;51.762;14.320;2023-02-08T20:39:58;14.60;;;10.07;;
7166;SDS011;3625;51.762;14.320;2023-02-08T20:42:28;11.37;;;9.33;;
7166;SDS011;3625;51.762;14.320;2023-02-08T20:44:57;12.13;;;9.23;;
7166;SDS011;3625;51.762;14.320;2023-02-08T20:47:29;12.93;;;10.23;;
7166;SDS011;3625;51.762;14.320;2023-02-08T20:50:15;15.57;;;11.53;;
7166;SDS011;3625;51.762;14.320;2023-02-08T20:52:49;15.43;;;10.73;;
7166;SDS011;3625;51.762;14.320;2023-02-08T20:55:23;15.53;;;11.03;;
7166;SDS011;3625;51.762;14.320;2023-02-08T20:57:54;14.73;;;11.43;;
7166;SDS011;3625;51.762;14.320;2023-02-08T21:00:23;11.60;;;9.77;;
7166;SDS011;3625;51.762;14.320;2023-02-08T21:03:14;11.70;;;10.13;;
7166;SDS011;3625;51.762;14.320;2023-02-08T21:05:43;12.90;;;10.73;;
7166;SDS011;3625;51.762;14.320;2023-02-08T21:08:12;16.40;;;10.43;;
7166;SDS011;3625;51.762;14.320;2023-02-08T21:10:45;12.77;;;10.20;;
7166;SDS011;3625;51.762;14.320;2023-02-08T21:13:14;14.60;;;10.63;;
7166;SDS011;3625;51.762;14.320;2023-02-08T21:15:45;13.40;;;10.67;;
7166;SDS011;3625;51.762;14.320;2023-02-08T21:18:14;14.63;;;11.17;;
7166;SDS011;3625;51.762;14.320;2023-02-08T21:20:47;16.20;;;12.60;;
7166;SDS011;3625;51.762;14.320;2023-02-08T21:23:19;14.80;;;11.50;;
7166;SDS011;3625;51.762;14.320;2023-02-08T21:25:50;12.90;;;10.63;;